Flight Track Log - Related Links

Times and Time Zones

All times are in EDT time to prevent confusion due to time zone crossing. See the N71AA flight status page for this flight to view local times or setup timezone preferences in your user account.

Time Position Orientation Groundspeed Altitude Reporting Facility
EDT Latitude Longitude Course Direction KTS MPH feet Rate Location/Type
Tue 05:04:33 PM 55.4000 -131.8167 328° Northwest 190 219 4,900  Level Anchorage Center
Tue 05:05:34 PM 55.4500 -131.8667 330° Northwest 170 196 7,200 2,132 Climbing Anchorage Center
Tue 05:06:34 PM 55.4833 -131.9333 311° West 180 207 9,200 2,050 Climbing Anchorage Center
Tue 05:07:34 PM 55.5167 -132.0000 311° West 190 219 11,300 1,850 Climbing Anchorage Center
Tue 05:08:34 PM 55.5500 -132.0500 320° Northwest 180 207 12,900 1,650 Climbing Anchorage Center
Tue 05:09:00 PM 55.6666 -132.2186 328° Northwest  Level FlightAware Approximate
Tue 05:09:34 PM 55.5833 -132.1167 312° West 180 207 14,600  Level Anchorage Center
Tue 05:10:34 PM 55.6167 -132.1833 312° West 190 219 16,000 1,300 Climbing Anchorage Center
Tue 05:11:34 PM 55.6667 -132.2333 331° Northwest 190 219 17,200 1,000 Climbing Anchorage Center
Tue 05:12:34 PM 55.7167 -132.2667 339° North 190 219 18,000 397 Climbing Anchorage Center
Tue 05:13:35 PM 55.7667 -132.3333 323° Northwest 220 253 18,000  Level Anchorage Center
Tue 05:14:50 PM 55.8333 -132.4167 325° Northwest 280 322 18,000  Level Anchorage Center
Tue 05:15:50 PM 55.9000 -132.5000 325° Northwest 270 311 18,000  Level Anchorage Center
Tue 05:16:50 PM 55.9667 -132.5667 331° Northwest 280 322 18,000  Level Anchorage Center
Tue 05:17:50 PM 56.0500 -132.6500 331° Northwest 290 334 18,000  Level Anchorage Center
Tue 05:18:50 PM 56.1167 -132.7333 325° Northwest 300 345 18,000  Level Anchorage Center
Tue 05:20:50 PM 56.2500 -132.8833 328° Northwest 300 345 18,000  Level Anchorage Center
Tue 05:21:50 PM 56.3167 -132.9500 331° Northwest 300 345 18,000  Level Anchorage Center
Tue 05:22:50 PM 56.3833 -133.0333 325° Northwest 290 334 18,000  Level Anchorage Center
Tue 05:23:50 PM 56.4500 -133.1167 325° Northwest 300 345 18,000  Level Anchorage Center
Tue 05:25:51 PM 56.6000 -133.2833 329° Northwest 290 334 18,000  Level Anchorage Center
Tue 05:26:51 PM 56.6500 -133.3500 324° Northwest 300 345 18,000  Level Anchorage Center
Tue 05:27:51 PM 56.7167 -133.4333 326° Northwest 290 334 18,000  Level Anchorage Center
Tue 05:28:51 PM 56.7833 -133.5167 326° Northwest 300 345 18,000  Level Anchorage Center
Tue 05:29:51 PM 56.8500 -133.6000 326° Northwest 290 334 18,000  Level Anchorage Center
Tue 05:30:51 PM 56.9333 -133.6833 331° Northwest 300 345 18,000  Level Anchorage Center
Tue 05:31:51 PM 57.0000 -133.7667 326° Northwest 290 334 18,000  Level Anchorage Center
Tue 05:32:51 PM 57.0667 -133.8500 326° Northwest 290 334 18,000  Level Anchorage Center
Tue 05:33:51 PM 57.1333 -133.9333 326° Northwest 300 345 18,000  Level Anchorage Center
Tue 05:34:51 PM 57.2000 -134.0167 326° Northwest 290 334 18,000  Level Anchorage Center
Tue 05:35:51 PM 57.2667 -134.1000 326° Northwest 300 345 18,000  Level Anchorage Center
Tue 05:36:52 PM 57.3333 -134.1833 326° Northwest 290 334 18,000  Level Anchorage Center
Tue 05:37:52 PM 57.4000 -134.2667 326° Northwest 290 334 18,000  Level Anchorage Center
Tue 05:38:52 PM 57.4833 -134.3667 327° Northwest 280 322 18,000  Level Anchorage Center
Tue 05:39:52 PM 57.5333 -134.4333 324° Northwest 290 334 18,000  Level Anchorage Center
Tue 05:40:52 PM 57.6000 -134.5167 326° Northwest 290 334 18,000 -150 Level Anchorage Center
Tue 05:41:52 PM 57.6833 -134.6167 327° Northwest 290 334 17,700 -700 Descending Anchorage Center
Tue 05:42:52 PM 57.7500 -134.7000 326° Northwest 310 357 16,600 -1,350 Descending Anchorage Center
Tue 05:43:52 PM 57.8167 -134.8000 321° Northwest 300 345 15,000 -1,650 Descending Anchorage Center
Tue 05:44:52 PM 57.8833 -134.8833 326° Northwest 300 345 13,300 -1,736 Descending Anchorage Center
Tue 05:45:53 PM 57.9500 -134.9667 326° Northwest 290 334 11,500 -1,700 Descending Anchorage Center
Tue 05:46:52 PM 58.0000 -135.0333 325° Northwest 280 322 9,900 -1,627 Descending Anchorage Center

Login

Don't have an account? Register now (free) for customized features, flight alerts, and more!